Time;durP1;ratioP1;P1;durP2;ratioP2;P2;SDS_P1;SDS_P2;PMS_P1;PMS_P2;Temp;Humidity;BMP_temperature;BMP_pressure;BME280_temperature;BME280_humidity;BME280_pressure;Samples;Min_cycle;Max_cycle;Signal;HPM_P1;HPM_P2
2022/07/07 00:01:34;;;;;;;4.07;2.40;;;14.30;88.40;;;;;;5048090;28;20478;-49
2022/07/07 00:04:02;;;;;;;4.40;2.20;;;14.20;89.50;;;;;;5062915;28;20987;-48
2022/07/07 00:06:30;;;;;;;3.27;2.77;;;14.20;89.30;;;;;;5063456;28;20516;-49
2022/07/07 00:08:57;;;;;;;3.43;2.80;;;14.10;89.90;;;;;;5057468;28;20486;-49
2022/07/07 00:11:24;;;;;;;7.67;2.67;;;13.90;90.10;;;;;;5063639;28;20499;-49
2022/07/07 00:13:52;;;;;;;3.00;2.33;;;13.90;90.50;;;;;;5057382;28;20506;-49
2022/07/07 00:16:19;;;;;;;4.63;2.60;;;13.90;90.40;;;;;;5043175;28;20482;-49
2022/07/07 00:18:46;;;;;;;7.03;2.63;;;13.90;90.90;;;;;;5065397;28;20483;-48
2022/07/07 00:21:14;;;;;;;2.87;2.40;;;13.90;90.90;;;;;;5057639;28;20490;-48
2022/07/07 00:23:41;;;;;;;3.13;2.60;;;13.90;91.20;;;;;;5059940;28;20486;-50
2022/07/07 00:26:08;;;;;;;5.70;2.90;;;13.90;91.50;;;;;;5032113;28;20471;-48
2022/07/07 00:28:35;;;;;;;5.50;2.23;;;13.90;92.10;;;;;;5056271;28;20478;-49
2022/07/07 00:31:02;;;;;;;3.40;2.60;;;13.80;92.20;;;;;;5054990;28;21046;-48
2022/07/07 00:33:29;;;;;;;4.30;2.80;;;13.80;92.80;;;;;;5052839;28;20489;-49
2022/07/07 00:35:55;;;;;;;2.70;2.50;;;13.80;92.80;;;;;;5052884;28;21006;-49
2022/07/07 00:38:23;;;;;;;3.10;2.90;;;14.00;92.50;;;;;;5053824;28;20486;-48
2022/07/07 00:40:51;;;;;;;7.90;3.63;;;14.10;91.90;;;;;;5059307;28;20822;-49
2022/07/07 00:43:18;;;;;;;3.83;3.00;;;14.20;91.70;;;;;;5058530;28;20492;-49
2022/07/07 00:45:46;;;;;;;8.70;2.87;;;14.40;91.50;;;;;;5054991;28;20856;-49
2022/07/07 00:48:13;;;;;;;5.80;2.70;;;14.40;91.60;;;;;;5058101;28;20575;-49
2022/07/07 00:50:40;;;;;;;3.27;2.97;;;14.40;91.90;;;;;;5061639;28;20471;-49
2022/07/07 00:53:07;;;;;;;2.93;2.63;;;14.50;92.00;;;;;;5059183;28;20475;-48
2022/07/07 00:55:35;;;;;;;6.20;2.77;;;14.60;91.60;;;;;;5053643;28;21020;-49
2022/07/07 00:58:02;;;;;;;2.40;2.20;;;14.60;91.30;;;;;;5053350;28;20501;-48
2022/07/07 01:00:29;;;;;;;3.00;2.70;;;14.70;91.40;;;;;;5050973;28;20491;-49
2022/07/07 01:02:56;;;;;;;5.50;3.00;;;14.70;91.50;;;;;;5056468;28;20540;-49
2022/07/07 01:05:24;;;;;;;3.17;2.90;;;14.80;90.90;;;;;;5031775;28;20482;-50
2022/07/07 01:07:52;;;;;;;5.17;2.70;;;14.80;90.80;;;;;;5044690;28;20481;-49
2022/07/07 01:10:19;;;;;;;7.23;2.50;;;14.90;91.00;;;;;;5053178;28;20598;-49
2022/07/07 01:12:47;;;;;;;2.80;2.50;;;14.90;90.90;;;;;;5021533;28;21062;-49
2022/07/07 01:15:14;;;;;;;3.27;2.50;;;14.90;90.50;;;;;;5032882;28;20484;-49
2022/07/07 01:17:42;;;;;;;3.00;2.70;;;15.00;90.50;;;;;;5035061;28;20486;-49
2022/07/07 01:20:11;;;;;;;5.77;2.57;;;14.90;90.90;;;;;;5045252;28;20504;-49
2022/07/07 01:22:39;;;;;;;3.30;3.00;;;14.70;91.20;;;;;;5051876;28;20974;-49
2022/07/07 01:25:08;;;;;;;3.60;2.40;;;14.50;91.90;;;;;;5052971;28;20485;-49
2022/07/07 01:27:35;;;;;;;2.77;2.03;;;14.50;91.50;;;;;;5041599;28;21097;-49
2022/07/07 01:30:02;;;;;;;4.73;2.63;;;14.50;91.80;;;;;;5053846;28;20467;-49
2022/07/07 01:32:29;;;;;;;5.10;3.00;;;14.30;92.60;;;;;;5045902;28;20865;-49
2022/07/07 01:34:56;;;;;;;5.93;2.97;;;14.20;92.80;;;;;;5056681;28;20575;-49
2022/07/07 01:37:24;;;;;;;5.80;3.70;;;14.10;93.10;;;;;;5056384;28;20478;-49
2022/07/07 01:39:52;;;;;;;3.20;2.90;;;14.10;92.70;;;;;;5054504;28;20562;-49
2022/07/07 01:42:20;;;;;;;5.00;3.07;;;14.20;92.20;;;;;;5056210;28;20470;-48
2022/07/07 01:44:50;;;;;;;4.37;2.97;;;14.30;91.70;;;;;;5047555;28;20478;-49
2022/07/07 01:47:18;;;;;;;7.10;3.13;;;14.30;92.30;;;;;;5050322;28;20494;-49
2022/07/07 01:49:44;;;;;;;6.17;2.80;;;14.30;91.90;;;;;;5058180;28;20474;-49
2022/07/07 01:52:11;;;;;;;2.93;2.50;;;14.30;91.70;;;;;;5055208;28;21006;-49
2022/07/07 01:54:39;;;;;;;2.80;2.60;;;14.30;91.90;;;;;;5051143;28;20491;-49
2022/07/07 01:57:07;;;;;;;5.03;2.80;;;14.20;91.90;;;;;;5055758;28;21000;-49
2022/07/07 01:59:35;;;;;;;7.00;3.20;;;13.90;92.80;;;;;;5056106;28;20494;-49
2022/07/07 02:02:02;;;;;;;5.23;3.10;;;13.80;92.80;;;;;;5057706;28;20486;-49
2022/07/07 02:04:29;;;;;;;4.10;2.50;;;13.80;92.50;;;;;;5053775;28;20478;-49
2022/07/07 02:06:56;;;;;;;5.47;2.97;;;13.80;92.30;;;;;;5046137;28;20475;-49
2022/07/07 02:09:23;;;;;;;9.20;3.80;;;13.80;92.30;;;;;;5055816;28;20987;-49
2022/07/07 02:11:49;;;;;;;3.33;3.03;;;13.90;92.30;;;;;;5047023;28;21050;-49
2022/07/07 02:14:16;;;;;;;3.80;2.60;;;13.80;92.80;;;;;;5058515;28;20895;-48
2022/07/07 02:16:44;;;;;;;6.53;3.23;;;13.70;93.20;;;;;;5047286;28;21038;-49
2022/07/07 02:19:11;;;;;;;3.53;3.13;;;13.70;93.50;;;;;;5055994;28;20474;-49
2022/07/07 02:21:37;;;;;;;4.23;3.20;;;13.80;92.50;;;;;;5056443;28;20498;-49
2022/07/07 02:24:05;;;;;;;3.73;3.13;;;13.80;92.30;;;;;;5057944;28;20999;-49
2022/07/07 02:26:33;;;;;;;4.00;2.90;;;13.80;92.30;;;;;;5055869;28;20482;-48
2022/07/07 02:28:59;;;;;;;2.57;2.20;;;13.90;91.90;;;;;;5054082;28;20471;-49
2022/07/07 02:31:26;;;;;;;4.23;3.23;;;13.90;92.20;;;;;;5056726;28;20483;-48
2022/07/07 02:33:54;;;;;;;7.00;2.70;;;13.90;92.00;;;;;;5056952;28;20482;-49
2022/07/07 02:36:21;;;;;;;3.17;2.40;;;13.80;92.20;;;;;;5057825;28;20482;-49
2022/07/07 02:38:49;;;;;;;2.90;2.57;;;13.80;92.00;;;;;;5051687;28;20991;-49
2022/07/07 02:41:16;;;;;;;3.87;3.13;;;13.80;91.50;;;;;;5048352;28;20501;-49
2022/07/07 02:43:42;;;;;;;6.60;2.87;;;13.80;92.10;;;;;;5053624;28;21574;-49
2022/07/07 02:46:09;;;;;;;4.13;2.70;;;13.70;92.50;;;;;;5045453;28;20481;-49
2022/07/07 02:48:36;;;;;;;4.53;3.00;;;13.70;92.10;;;;;;5048337;28;20497;-49
2022/07/07 02:51:04;;;;;;;3.83;2.97;;;13.60;92.10;;;;;;5053682;28;20823;-49
2022/07/07 02:53:31;;;;;;;4.00;2.87;;;13.50;92.40;;;;;;5050627;28;20498;-49
2022/07/07 02:55:57;;;;;;;3.20;2.47;;;13.40;92.00;;;;;;5054371;28;20486;-49
2022/07/07 02:58:24;;;;;;;7.97;2.70;;;13.30;92.30;;;;;;5054898;28;20481;-48
2022/07/07 03:00:54;;;;;;;2.77;2.37;;;13.00;92.80;;;;;;5056200;28;20486;-48
2022/07/07 03:03:21;;;;;;;4.47;2.90;;;12.90;93.70;;;;;;5058307;28;21145;-48
2022/07/07 03:05:48;;;;;;;6.67;3.80;;;12.70;94.30;;;;;;5056152;28;21010;-49
2022/07/07 03:08:16;;;;;;;6.37;4.30;;;12.70;94.30;;;;;;5056254;28;20492;-48
2022/07/07 03:10:42;;;;;;;5.43;2.97;;;12.70;94.30;;;;;;5059694;28;20483;-49
2022/07/07 03:13:09;;;;;;;7.50;3.23;;;12.70;94.90;;;;;;5055619;28;20486;-49
2022/07/07 03:15:36;;;;;;;4.43;4.03;;;12.60;94.90;;;;;;5052924;28;21058;-49
2022/07/07 03:18:03;;;;;;;4.07;3.70;;;12.60;95.20;;;;;;5030733;28;20497;-49
2022/07/07 03:20:29;;;;;;;6.80;3.80;;;12.70;94.90;;;;;;5045838;28;20491;-49
2022/07/07 03:22:56;;;;;;;5.07;3.30;;;12.70;94.60;;;;;;5058298;28;20481;-49
2022/07/07 03:25:24;;;;;;;5.03;3.20;;;12.90;93.90;;;;;;5055500;28;20482;-49
2022/07/07 03:27:51;;;;;;;4.30;3.53;;;13.00;93.60;;;;;;5053777;28;20482;-49
2022/07/07 03:30:18;;;;;;;4.43;3.60;;;13.10;93.90;;;;;;5056357;28;20485;-49
2022/07/07 03:32:44;;;;;;;3.20;2.90;;;13.20;93.50;;;;;;5058585;28;20485;-49
2022/07/07 03:35:11;;;;;;;3.90;2.77;;;13.20;93.10;;;;;;5060206;28;20501;-49
2022/07/07 03:37:38;;;;;;;4.60;3.10;;;13.20;93.20;;;;;;5059622;28;20476;-49
2022/07/07 03:40:06;;;;;;;2.70;2.50;;;13.20;93.30;;;;;;5060526;28;20863;-50
2022/07/07 03:42:36;;;;;;;3.63;3.03;;;13.10;93.20;;;;;;5062019;28;21044;-50
2022/07/07 03:45:03;;;;;;;3.63;3.03;;;13.20;93.20;;;;;;5033794;28;20481;-49
2022/07/07 03:47:30;;;;;;;3.33;3.03;;;13.20;93.20;;;;;;5058768;28;20837;-50
2022/07/07 03:49:56;;;;;;;4.40;3.23;;;13.10;93.20;;;;;;5058531;28;20853;-49
2022/07/07 03:52:23;;;;;;;3.63;3.33;;;13.10;93.10;;;;;;5061777;28;20492;-49
2022/07/07 03:54:50;;;;;;;3.70;3.40;;;13.00;93.20;;;;;;5059572;28;20481;-49
2022/07/07 03:57:16;;;;;;;5.37;3.67;;;13.00;93.10;;;;;;5061468;28;20640;-49
2022/07/07 03:59:44;;;;;;;3.77;3.43;;;13.00;93.40;;;;;;5057201;28;20994;-50
2022/07/07 04:02:12;;;;;;;3.73;3.30;;;;;;;;;;5058823;28;20478;-50
2022/07/07 04:04:39;;;;;;;5.60;3.93;;;12.60;94.50;;;;;;5056528;28;20494;-49
2022/07/07 04:07:06;;;;;;;3.63;3.10;;;12.60;94.90;;;;;;5044321;28;20849;-49
2022/07/07 04:09:32;;;;;;;9.93;4.17;;;12.60;95.00;;;;;;5054733;28;20701;-50
2022/07/07 04:11:59;;;;;;;4.90;3.93;;;12.70;95.10;;;;;;5058610;28;20483;-49
2022/07/07 04:14:26;;;;;;;5.70;4.03;;;12.80;94.70;;;;;;5061769;28;21022;-49
2022/07/07 04:16:54;;;;;;;5.87;3.70;;;12.90;94.60;;;;;;5058707;28;20486;-50
2022/07/07 04:19:21;;;;;;;7.70;4.73;;;13.10;94.30;;;;;;5057734;28;20494;-49
2022/07/07 04:21:48;;;;;;;4.50;4.00;;;13.20;94.20;;;;;;5052423;28;20481;-50
2022/07/07 04:24:15;;;;;;;7.13;4.10;;;13.30;94.90;;;;;;5065652;28;20473;-50
2022/07/07 04:26:41;;;;;;;7.07;4.63;;;13.20;95.60;;;;;;5052689;28;20786;-49
2022/07/07 04:29:08;;;;;;;5.10;4.60;;;13.20;96.00;;;;;;5061834;28;20474;-49
2022/07/07 04:31:35;;;;;;;7.60;4.30;;;13.30;96.40;;;;;;5056732;28;20742;-50
2022/07/07 04:34:04;;;;;;;4.17;3.77;;;13.40;96.60;;;;;;5060070;28;20478;-49
2022/07/07 04:36:30;;;;;;;5.57;4.07;;;13.50;96.30;;;;;;5057846;28;20550;-49
2022/07/07 04:38:57;;;;;;;4.43;3.93;;;13.50;96.00;;;;;;5059126;28;20490;-50
2022/07/07 04:41:24;;;;;;;6.57;4.30;;;13.70;96.00;;;;;;5058800;28;20494;-50
2022/07/07 04:43:50;;;;;;;6.57;3.93;;;13.80;95.90;;;;;;5064708;28;20490;-50
2022/07/07 04:46:17;;;;;;;8.00;4.30;;;13.80;96.30;;;;;;5055488;28;20480;-50
2022/07/07 04:48:44;;;;;;;7.20;3.73;;;14.00;96.10;;;;;;5059124;28;20474;-49
2022/07/07 04:51:12;;;;;;;7.70;4.40;;;14.20;96.10;;;;;;5062301;28;21213;-49
2022/07/07 04:53:38;;;;;;;4.47;4.00;;;14.20;96.60;;;;;;5049271;28;20498;-50
2022/07/07 04:56:05;;;;;;;4.83;3.73;;;14.30;95.90;;;;;;5051329;28;20483;-49
2022/07/07 04:58:32;;;;;;;4.90;4.40;;;14.40;96.00;;;;;;5061698;28;20475;-54
2022/07/07 05:00:59;;;;;;;5.77;3.50;;;14.40;95.50;;;;;;5058934;28;20483;-49
2022/07/07 05:03:26;;;;;;;4.33;3.83;;;14.40;95.70;;;;;;5057427;28;20494;-49
2022/07/07 05:05:52;;;;;;;4.10;3.70;;;14.50;95.60;;;;;;5056550;28;20492;-49
2022/07/07 05:08:20;;;;;;;4.33;3.87;;;14.50;96.10;;;;;;5059951;28;20490;-49
2022/07/07 05:10:47;;;;;;;4.13;3.73;;;14.50;96.10;;;;;;5054320;28;20539;-49
2022/07/07 05:13:14;;;;;;;8.30;4.13;;;14.70;96.60;;;;;;5056935;28;20514;-49
2022/07/07 05:15:40;;;;;;;6.10;3.47;;;14.80;97.00;;;;;;5061716;28;20502;-49
2022/07/07 05:18:07;;;;;;;5.27;4.77;;;14.80;97.00;;;;;;5055330;28;20479;-50
2022/07/07 05:20:34;;;;;;;7.43;4.10;;;14.90;97.00;;;;;;5061047;28;20483;-50
2022/07/07 05:23:00;;;;;;;7.27;4.57;;;15.00;96.90;;;;;;5057840;28;20979;-49
2022/07/07 05:25:28;;;;;;;8.30;4.70;;;15.10;97.10;;;;;;5054459;28;20497;-49
2022/07/07 05:27:55;;;;;;;4.73;3.87;;;15.10;97.40;;;;;;5055162;28;21155;-50
2022/07/07 05:30:22;;;;;;;7.23;4.07;;;15.20;96.80;;;;;;5056499;28;21000;-50
2022/07/07 05:32:49;;;;;;;5.20;4.50;;;15.40;96.80;;;;;;5060684;28;20987;-49
2022/07/07 05:35:16;;;;;;;4.30;4.00;;;15.50;97.00;;;;;;5062653;28;20579;-50
2022/07/07 05:37:43;;;;;;;5.37;3.70;;;15.40;97.20;;;;;;5054464;28;21056;-50
2022/07/07 05:40:10;;;;;;;10.10;5.30;;;15.70;96.70;;;;;;5055808;28;20475;-50
2022/07/07 05:42:38;;;;;;;10.00;4.30;;;15.90;95.70;;;;;;5052359;28;21121;-50
2022/07/07 05:45:06;;;;;;;4.97;3.77;;;15.90;96.10;;;;;;5057247;28;20980;-50
2022/07/07 05:47:33;;;;;;;6.70;4.10;;;16.00;96.40;;;;;;5047817;28;20830;-50
2022/07/07 05:50:00;;;;;;;4.50;3.60;;;16.00;96.30;;;;;;5062862;28;20482;-50
2022/07/07 05:52:27;;;;;;;4.53;4.03;;;16.20;96.90;;;;;;5056378;28;21000;-50
2022/07/07 05:54:53;;;;;;;7.90;4.00;;;16.20;95.40;;;;;;5036298;28;20568;-50
2022/07/07 05:57:20;;;;;;;9.77;4.40;;;16.30;95.60;;;;;;5044037;28;20471;-50
2022/07/07 05:59:48;;;;;;;4.00;3.70;;;16.40;94.60;;;;;;5058120;28;20487;-50
2022/07/07 06:02:15;;;;;;;3.70;3.40;;;16.40;94.70;;;;;;5058016;28;21047;-50
2022/07/07 06:04:42;;;;;;;5.77;3.80;;;16.50;94.70;;;;;;5066270;28;21620;-50
2022/07/07 06:07:08;;;;;;;7.40;3.77;;;16.60;94.80;;;;;;5055580;28;20554;-50
2022/07/07 06:09:35;;;;;;;4.40;4.00;;;16.60;94.20;;;;;;5056902;28;20495;-50
2022/07/07 06:12:02;;;;;;;13.60;3.87;;;16.60;94.20;;;;;;5056993;28;20482;-50
2022/07/07 06:14:29;;;;;;;4.17;3.77;;;16.60;93.30;;;;;;5051349;28;20486;-50
2022/07/07 06:16:57;;;;;;;7.80;4.40;;;16.70;94.10;;;;;;5051890;28;20479;-51
2022/07/07 06:19:24;;;;;;;5.23;4.33;;;16.80;93.80;;;;;;5057141;28;20490;-50
2022/07/07 06:21:51;;;;;;;4.40;3.77;;;16.90;93.70;;;;;;5058027;28;20477;-50
2022/07/07 06:24:18;;;;;;;7.13;6.13;;;17.10;93.80;;;;;;5061317;28;20489;-52
2022/07/07 06:26:45;;;;;;;5.70;4.33;;;17.10;94.00;;;;;;5051270;28;21294;-50
2022/07/07 06:29:11;;;;;;;5.97;4.90;;;17.30;93.00;;;;;;5057696;28;21014;-50
2022/07/07 06:31:38;;;;;;;9.60;5.00;;;17.40;93.40;;;;;;5060375;28;20486;-50
2022/07/07 06:34:06;;;;;;;11.07;5.10;;;17.40;92.60;;;;;;5059283;28;20486;-49
2022/07/07 06:36:33;;;;;;;6.30;4.23;;;17.30;92.80;;;;;;5054228;28;20494;-50
2022/07/07 06:38:59;;;;;;;6.03;4.53;;;17.40;92.90;;;;;;5056836;28;20487;-50
2022/07/07 06:41:35;;;;;;;6.00;4.50;;;17.50;93.00;;;;;;5049543;28;20486;-50
2022/07/07 06:44:02;;;;;;;4.97;4.53;;;17.60;93.10;;;;;;5058736;28;21012;-50
2022/07/07 06:46:29;;;;;;;5.07;4.57;;;17.70;92.70;;;;;;5052297;28;20487;-50
2022/07/07 06:48:55;;;;;;;5.23;4.73;;;17.80;92.80;;;;;;5056851;28;20490;-51
2022/07/07 06:51:24;;;;;;;8.03;5.17;;;17.80;92.90;;;;;;5043914;28;20483;-50
2022/07/07 06:53:51;;;;;;;5.33;4.77;;;17.90;93.20;;;;;;5060386;28;21021;-50
2022/07/07 06:56:17;;;;;;;6.03;4.90;;;17.90;92.40;;;;;;5055948;28;20483;-51
2022/07/07 06:58:45;;;;;;;7.00;4.47;;;17.90;92.30;;;;;;5050791;28;20479;-50
2022/07/07 07:01:11;;;;;;;10.93;5.77;;;17.90;92.60;;;;;;5056810;28;20518;-51
2022/07/07 07:03:38;;;;;;;5.43;4.13;;;17.90;92.10;;;;;;5057816;28;20489;-51
2022/07/07 07:06:05;;;;;;;8.87;5.10;;;17.90;92.30;;;;;;5050985;28;20479;-50
2022/07/07 07:08:33;;;;;;;5.00;4.50;;;18.00;92.50;;;;;;5053000;28;20482;-50
2022/07/07 07:11:00;;;;;;;6.97;4.90;;;18.10;92.70;;;;;;5059307;28;20475;-50
2022/07/07 07:13:27;;;;;;;7.90;5.37;;;18.20;92.20;;;;;;5060978;28;20487;-50
2022/07/07 07:15:53;;;;;;;4.50;3.67;;;18.30;92.40;;;;;;5061516;28;20466;-51
2022/07/07 07:18:20;;;;;;;14.13;5.27;;;18.30;92.50;;;;;;5057153;28;21093;-52
2022/07/07 07:20:47;;;;;;;6.50;5.10;;;18.50;92.80;;;;;;5056813;28;20781;-50
2022/07/07 07:23:13;;;;;;;5.80;4.60;;;18.60;92.50;;;;;;5058071;28;20474;-50
2022/07/07 07:25:41;;;;;;;6.97;5.23;;;18.70;92.40;;;;;;5043812;28;21059;-51
2022/07/07 07:28:08;;;;;;;6.77;5.30;;;18.80;92.20;;;;;;5059513;28;20489;-50
2022/07/07 07:30:35;;;;;;;9.13;4.40;;;18.90;92.10;;;;;;5060705;28;20489;-50
2022/07/07 07:33:01;;;;;;;7.50;4.97;;;19.00;92.00;;;;;;5059646;28;20482;-50
2022/07/07 07:35:28;;;;;;;6.23;4.27;;;19.00;92.10;;;;;;5050304;28;20487;-51
2022/07/07 07:37:55;;;;;;;5.17;4.70;;;19.10;92.00;;;;;;5040270;28;20468;-50
2022/07/07 07:40:22;;;;;;;12.20;4.80;;;19.10;91.60;;;;;;5055971;28;20474;-49
2022/07/07 07:42:50;;;;;;;6.70;5.50;;;19.10;91.50;;;;;;5063591;28;21069;-50
2022/07/07 07:45:17;;;;;;;6.33;5.67;;;19.10;91.60;;;;;;5066682;28;20480;-50
2022/07/07 07:47:45;;;;;;;8.67;5.33;;;19.10;91.70;;;;;;5060459;28;20477;-50
2022/07/07 07:50:14;;;;;;;5.70;5.17;;;19.10;92.00;;;;;;5061881;28;20510;-50
2022/07/07 07:52:41;;;;;;;9.43;5.67;;;19.10;92.00;;;;;;5055080;28;20478;-50
2022/07/07 07:55:09;;;;;;;6.40;5.40;;;19.10;91.50;;;;;;5059823;28;21132;-51
2022/07/07 07:57:36;;;;;;;10.20;4.90;;;19.20;91.70;;;;;;5052498;28;21219;-50
2022/07/07 08:00:08;;;;;;;4.87;4.37;;;19.40;91.90;;;;;;5063428;28;20860;-50
2022/07/07 08:02:35;;;;;;;6.00;4.47;;;19.50;91.90;;;;;;5064399;28;20482;-50
2022/07/07 08:05:02;;;;;;;9.83;4.50;;;19.80;92.00;;;;;;5058867;28;21233;-50
2022/07/07 08:07:29;;;;;;;5.20;4.17;;;20.00;91.80;;;;;;5064808;28;20619;-50
2022/07/07 08:09:55;;;;;;;4.80;4.13;;;20.10;91.70;;;;;;5058831;28;21147;-51
2022/07/07 08:12:22;;;;;;;5.80;4.87;;;20.20;91.30;;;;;;5065238;28;20799;-50
2022/07/07 08:14:49;;;;;;;7.30;5.67;;;20.30;90.80;;;;;;5058843;28;20837;-51
2022/07/07 08:17:17;;;;;;;13.87;6.30;;;20.30;90.60;;;;;;5054954;28;20870;-50
2022/07/07 08:19:43;;;;;;;8.27;4.37;;;20.20;90.50;;;;;;5065732;28;21016;-50
2022/07/07 08:22:12;;;;;;;6.03;4.37;;;20.20;90.70;;;;;;5058017;28;20483;-52
2022/07/07 08:24:38;;;;;;;5.50;4.23;;;20.20;90.90;;;;;;5063395;28;20487;-50
2022/07/07 08:27:06;;;;;;;16.80;5.23;;;20.20;90.70;;;;;;5057155;28;20477;-50
2022/07/07 08:29:32;;;;;;;7.60;3.93;;;20.30;90.80;;;;;;5050166;28;20557;-52
2022/07/07 08:31:59;;;;;;;6.57;4.40;;;20.30;90.70;;;;;;5063215;28;20679;-51
2022/07/07 08:34:27;;;;;;;11.50;5.53;;;20.30;91.40;;;;;;5057337;28;21004;-52
2022/07/07 08:36:54;;;;;;;6.07;4.70;;;20.30;91.30;;;;;;5063609;28;20465;-51
2022/07/07 08:39:20;;;;;;;5.70;5.13;;;20.30;91.20;;;;;;5055322;28;20483;-51
2022/07/07 08:41:47;;;;;;;5.37;4.87;;;20.20;90.90;;;;;;5056816;28;20910;-51
2022/07/07 08:44:15;;;;;;;5.70;4.80;;;20.30;91.40;;;;;;5063378;28;20524;-51
2022/07/07 08:46:42;;;;;;;5.50;4.70;;;20.40;90.90;;;;;;5057027;28;20487;-51
2022/07/07 08:49:10;;;;;;;7.57;5.40;;;20.30;90.90;;;;;;5065940;28;20923;-51
2022/07/07 08:51:41;;;;;;;5.80;4.60;;;20.30;91.00;;;;;;5064707;28;21121;-52
2022/07/07 08:54:09;;;;;;;8.83;5.37;;;20.20;91.30;;;;;;5064075;28;20569;-51
2022/07/07 08:56:38;;;;;;;5.70;4.83;;;20.30;91.30;;;;;;5053031;28;20482;-50
2022/07/07 08:59:06;;;;;;;8.83;5.60;;;20.10;91.30;;;;;;5065556;28;20488;-50
2022/07/07 09:01:34;;;;;;;5.87;5.27;;;20.10;91.40;;;;;;5054994;28;20488;-51
2022/07/07 09:04:01;;;;;;;6.00;4.93;;;20.20;91.30;;;;;;5065918;28;20983;-52
2022/07/07 09:06:28;;;;;;;6.23;4.53;;;20.20;91.40;;;;;;5060831;28;20484;-50
2022/07/07 09:08:56;;;;;;;13.60;5.80;;;20.40;91.50;;;;;;5039151;28;20469;-50
2022/07/07 09:11:26;;;;;;;4.90;4.10;;;20.50;91.20;;;;;;5061861;28;20480;-50
2022/07/07 09:13:57;;;;;;;6.80;4.90;;;20.50;91.60;;;;;;5062435;28;20582;-50
2022/07/07 09:16:24;;;;;;;8.73;4.50;;;20.50;91.60;;;;;;5061080;28;20488;-51
2022/07/07 09:18:50;;;;;;;5.97;5.37;;;20.60;91.60;;;;;;5063581;28;20488;-51
2022/07/07 09:21:28;;;;;;;5.17;4.53;;;20.60;91.80;;;;;;5061865;28;21013;-50
2022/07/07 09:23:59;;;;;;;6.73;4.80;;;20.70;91.60;;;;;;5052058;28;21020;-50
2022/07/07 09:26:36;;;;;;;6.03;5.00;;;20.80;91.40;;;;;;5057840;28;20602;-51
2022/07/07 09:29:04;;;;;;;9.67;5.30;;;20.80;91.60;;;;;;5063456;28;20567;-49
2022/07/07 09:31:52;;;;;;;4.90;4.40;;;20.80;90.90;;;;;;5063068;28;20489;-52
2022/07/07 09:34:20;;;;;;;8.47;5.00;;;20.90;91.50;;;;;;5063546;28;21067;-51
2022/07/07 09:39:41;;;;;;;9.33;3.90;;;21.00;90.70;;;;;;5061053;28;20512;-51
2022/07/07 09:42:21;;;;;;;5.63;3.07;;;21.00;90.60;;;;;;5050596;28;20577;-51
2022/07/07 09:44:50;;;;;;;7.27;3.00;;;21.00;90.50;;;;;;5059617;28;20481;-51
2022/07/07 09:47:17;;;;;;;2.83;2.63;;;21.20;90.80;;;;;;5059295;28;20482;-51
2022/07/07 09:49:44;;;;;;;3.07;2.50;;;21.30;90.80;;;;;;5059772;28;20517;-51
2022/07/07 09:52:20;;;;;;;4.00;2.50;;;21.50;90.90;;;;;;5059114;28;20478;-52
2022/07/07 09:54:50;;;;;;;6.10;3.13;;;21.60;91.00;;;;;;5059018;28;20491;-50
2022/07/07 09:57:17;;;;;;;3.50;2.60;;;22.10;91.10;;;;;;5057394;28;21041;-51
2022/07/07 09:59:44;;;;;;;6.20;3.80;;;22.20;89.80;;;;;;5062127;28;20477;-51
2022/07/07 10:02:19;;;;;;;8.43;2.70;;;22.40;90.00;;;;;;5061966;28;20473;-50
2022/07/07 10:04:49;;;;;;;5.40;2.77;;;22.40;88.70;;;;;;5060821;28;20602;-51
2022/07/07 10:07:18;;;;;;;2.80;2.00;;;22.30;87.80;;;;;;5060308;28;20619;-50
2022/07/07 10:09:48;;;;;;;6.33;3.93;;;22.40;88.90;;;;;;5062206;28;20491;-51
2022/07/07 10:12:17;;;;;;;2.93;2.63;;;22.30;88.60;;;;;;5061837;28;20847;-51
2022/07/07 10:14:45;;;;;;;3.00;2.80;;;22.40;89.00;;;;;;5058905;28;20481;-52
2022/07/07 10:17:16;;;;;;;3.90;2.70;;;22.50;88.90;;;;;;5057815;28;20481;-51
2022/07/07 10:19:43;;;;;;;5.40;2.60;;;22.50;87.90;;;;;;5063080;28;20573;-51
2022/07/07 10:22:12;;;;;;;3.83;3.00;;;22.60;87.50;;;;;;5059881;28;20827;-50
2022/07/07 10:24:40;;;;;;;3.40;2.77;;;22.80;87.50;;;;;;5056842;28;20486;-52
2022/07/07 10:27:08;;;;;;;3.30;2.53;;;22.80;88.20;;;;;;5059610;28;21006;-51
2022/07/07 10:29:41;;;;;;;5.67;3.03;;;22.90;87.50;;;;;;5057539;28;20565;-50
2022/07/07 10:32:09;;;;;;;3.50;2.90;;;22.90;87.20;;;;;;5062631;28;20557;-52
2022/07/07 10:34:37;;;;;;;4.90;2.93;;;23.00;86.90;;;;;;5051400;28;20653;-51
2022/07/07 10:37:06;;;;;;;4.83;2.40;;;23.30;87.80;;;;;;5061241;28;20559;-53
2022/07/07 10:39:36;;;;;;;5.60;2.90;;;23.40;86.00;;;;;;5060419;28;20715;-51
2022/07/07 10:42:35;;;;;;;11.30;5.80;;;23.10;84.00;;;;;;5028955;28;20489;-51
2022/07/07 10:45:04;;;;;;;5.53;3.50;;;23.00;84.20;;;;;;5018388;28;20474;-50
2022/07/07 10:47:33;;;;;;;6.43;2.60;;;22.80;85.20;;;;;;5041935;28;20482;-50
2022/07/07 10:50:01;;;;;;;3.53;2.50;;;22.80;85.90;;;;;;5058919;28;20474;-50
2022/07/07 10:52:29;;;;;;;2.90;2.70;;;22.50;85.50;;;;;;5044037;28;20467;-50
2022/07/07 10:54:59;;;;;;;3.17;2.57;;;22.50;86.40;;;;;;5041749;28;20493;-50
2022/07/07 10:57:27;;;;;;;11.83;3.43;;;22.40;86.30;;;;;;5055244;28;20926;-49
2022/07/07 11:00:14;;;;;;;7.90;3.00;;;22.40;86.00;;;;;;5046742;28;20517;-50
2022/07/07 11:02:44;;;;;;;3.07;2.77;;;22.40;86.30;;;;;;5060114;28;20482;-50
2022/07/07 11:05:35;;;;;;;4.00;3.13;;;22.40;87.60;;;;;;5051278;28;20508;-49
2022/07/07 11:08:10;;;;;;;2.77;2.57;;;22.40;86.70;;;;;;5037561;28;21274;-50
2022/07/07 11:10:55;;;;;;;3.20;2.90;;;22.50;87.20;;;;;;5043371;28;20485;-51
2022/07/07 11:13:29;;;;;;;4.90;4.23;;;22.60;87.40;;;;;;5045353;28;20857;-50
2022/07/07 11:16:13;;;;;;;4.50;3.27;;;22.70;88.50;;;;;;5047304;28;20740;-49
2022/07/07 11:18:41;;;;;;;4.00;2.70;;;22.90;86.80;;;;;;5038789;28;20479;-50
2022/07/07 11:21:08;;;;;;;2.63;2.43;;;22.90;87.10;;;;;;5060445;28;20478;-50
2022/07/07 11:23:48;;;;;;;3.20;2.90;;;23.20;85.60;;;;;;5050208;28;21988;-50
2022/07/07 11:26:17;;;;;;;2.97;2.67;;;23.40;87.80;;;;;;5054256;28;20810;-51
2022/07/07 11:28:44;;;;;;;4.73;2.80;;;23.20;84.30;;;;;;5054195;28;20607;-51
2022/07/07 11:31:15;;;;;;;3.23;2.50;;;23.20;83.90;;;;;;5049703;28;20497;-50
2022/07/07 11:33:42;;;;;;;4.33;2.40;;;22.90;85.00;;;;;;5042088;28;20478;-50
2022/07/07 11:36:19;;;;;;;3.83;3.20;;;22.70;85.30;;;;;;5045674;28;20490;-52
2022/07/07 11:38:48;;;;;;;2.80;2.47;;;22.60;85.60;;;;;;5047062;28;20458;-51
2022/07/07 11:41:15;;;;;;;3.90;2.40;;;22.30;86.90;;;;;;5047023;28;20489;-54
2022/07/07 11:43:42;;;;;;;3.47;2.57;;;22.20;87.50;;;;;;5033355;28;21605;-50
2022/07/07 11:46:08;;;;;;;5.70;2.53;;;22.10;88.60;;;;;;5049027;28;20880;-48
2022/07/07 11:48:41;;;;;;;4.60;2.27;;;22.00;89.00;;;;;;5054757;28;20469;-48
2022/07/07 11:51:08;;;;;;;3.43;2.80;;;22.00;88.90;;;;;;5061435;28;20967;-49
2022/07/07 11:53:36;;;;;;;2.33;1.93;;;22.20;89.90;;;;;;5061319;28;20474;-49
2022/07/07 11:56:03;;;;;;;3.43;1.60;;;22.50;88.00;;;;;;5058986;28;20901;-48
2022/07/07 11:58:30;;;;;;;2.73;1.93;;;22.60;88.40;;;;;;5059961;28;20490;-48
2022/07/07 12:00:57;;;;;;;2.20;1.70;;;22.90;88.20;;;;;;5061855;28;20533;-48
2022/07/07 12:03:32;;;;;;;3.40;1.90;;;23.40;86.30;;;;;;5059368;28;20485;-48
2022/07/07 12:06:03;;;;;;;2.67;1.80;;;23.60;85.10;;;;;;5048262;28;20482;-50
2022/07/07 12:08:37;;;;;;;5.90;2.00;;;23.80;84.50;;;;;;5061455;28;20992;-49
2022/07/07 12:11:05;;;;;;;5.00;1.27;;;23.80;84.40;;;;;;5059653;28;20492;-49
2022/07/07 12:13:32;;;;;;;2.43;1.20;;;23.90;84.80;;;;;;5059972;28;21059;-48
2022/07/07 12:16:03;;;;;;;4.47;1.80;;;23.90;84.50;;;;;;5053994;28;20859;-49
2022/07/07 12:18:35;;;;;;;2.20;1.80;;;24.10;83.20;;;;;;5060839;28;20691;-49
2022/07/07 12:21:05;;;;;;;3.70;1.67;;;24.30;83.60;;;;;;5049717;28;20485;-49
2022/07/07 12:23:36;;;;;;;1.70;1.10;;;24.30;82.00;;;;;;5062861;28;20532;-49
2022/07/07 12:26:12;;;;;;;2.03;1.33;;;24.20;81.20;;;;;;5056870;28;20582;-49
2022/07/07 12:28:40;;;;;;;1.70;1.03;;;24.20;81.30;;;;;;5032786;28;20529;-49
2022/07/07 12:31:07;;;;;;;1.80;1.10;;;24.10;81.20;;;;;;5055539;28;20502;-49
2022/07/07 12:33:36;;;;;;;1.90;1.20;;;24.00;82.10;;;;;;5061984;28;20477;-49
2022/07/07 12:36:15;;;;;;;2.30;1.40;;;23.80;80.90;;;;;;5057958;28;20517;-49
2022/07/07 12:38:45;;;;;;;2.67;1.40;;;23.70;82.40;;;;;;5043028;28;21040;-48
2022/07/07 12:41:24;;;;;;;2.70;1.10;;;23.50;82.50;;;;;;5030204;28;20644;-49
2022/07/07 12:43:51;;;;;;;10.33;2.00;;;23.60;82.60;;;;;;5058940;28;20999;-50
2022/07/07 12:46:18;;;;;;;1.97;1.50;;;23.60;82.80;;;;;;5054834;28;20485;-51
2022/07/07 12:48:47;;;;;;;3.33;2.00;;;23.50;81.30;;;;;;5058700;28;20477;-51
2022/07/07 12:51:15;;;;;;;2.30;1.40;;;23.50;81.00;;;;;;5041255;28;20491;-49
2022/07/07 12:53:43;;;;;;;2.97;1.67;;;23.70;81.80;;;;;;5027200;28;20477;-49